Terminal Aerodrome Forecast
Issued by NWS

Home | Current Version | Previous Version | Text Only | Print | Product List | Glossary On
Versions: 1 2 3 4 5 6 7 8 9 10 11 12 13 14 15 16 17 18 19
000
FTUS44 KLIX 080526
TAFHDC
TAF
KHDC 080526Z 0806/0906 04004KT P6SM BKN020
     FM080900 04006KT P6SM OVC015
     FM081200 03008KT P6SM VCSH OVC015
     FM081500 03009KT P6SM OVC015 PROB30 0815/0818 4SM -SHRA OVC007
     FM081800 02009KT P6SM BKN035
     FM082300 01011KT P6SM SCT090=

USA.gov is the U.S. government's official web portal to all federal, state and local government web resources and services.